Time;durP1;ratioP1;P1;durP2;ratioP2;P2;SDS_P1;SDS_P2;PMS_P1;PMS_P2;Temp;Humidity;BMP_temperature;BMP_pressure;BME280_temperature;BME280_humidity;BME280_pressure;Samples;Min_cycle;Max_cycle;Signal;HPM_P1;HPM_P2
2022/05/06 00:01:59;;;;;;;;;;;;;;;;;;5056808;28;20297;-81
2022/05/06 00:04:29;;;;;;;;;;;;;;;;;;5055455;28;20271;-81
2022/05/06 00:06:55;;;;;;;;;;;;;;;;;;5056867;28;19916;-82
2022/05/06 00:09:21;;;;;;;;;;;;;;;;;;5038759;28;20285;-82
2022/05/06 00:11:46;;;;;;;;;;;;;;;;;;5038581;28;19921;-82
2022/05/06 00:14:11;;;;;;;;;;;;;;;;;;5056722;28;19944;-82
2022/05/06 00:16:37;;;;;;;;;;;;;;;;;;5022846;28;19912;-82
2022/05/06 00:19:04;;;;;;;;;;;;;;;;;;5056353;28;19913;-80
2022/05/06 00:21:32;;;;;;;;;;;;;;;;;;5038404;28;19959;-81
2022/05/06 00:23:57;;;;;;;;;;;;;;;;;;5050473;28;19916;-81
2022/05/06 00:26:22;;;;;;;;;;;;;;;;;;5055674;28;19913;-81
2022/05/06 00:28:47;;;;;;;;;;;;;;;;;;5038112;28;19927;-80
2022/05/06 00:31:13;;;;;;;;;;;;;;;;;;5056487;28;19920;-81
2022/05/06 00:33:38;;;;;;;;;;;;;;;;;;5054663;28;19913;-81
2022/05/06 00:36:03;;;;;;;;;;;;;;;;;;5055711;28;19917;-81
2022/05/06 00:38:29;;;;;;;;;;;;;;;;;;5038435;28;19916;-79
2022/05/06 00:40:54;;;;;;;;;;;;;;;;;;5055372;28;19913;-79
2022/05/06 00:43:20;;;;;;;;;;;;;;;;;;5055877;28;20400;-79
2022/05/06 00:45:52;;;;;;;;;;;;;;;;;;5055432;28;20288;-82
2022/05/06 00:48:17;;;;;;;;;;;;;;;;;;5056084;28;19952;-81
2022/05/06 00:50:43;;;;;;;;;;;;;;;;;;5038756;28;20010;-82
2022/05/06 00:53:11;;;;;;;;;;;;;;;;;;5038047;28;20489;-81
2022/05/06 00:55:38;;;;;;;;;;;;;;;;;;5055047;28;19927;-79
2022/05/06 00:58:06;;;;;;;;;;;;;;;;;;5055236;28;19921;-79
2022/05/06 01:00:31;;;;;;;;;;;;;;;;;;5038048;28;19928;-79
2022/05/06 01:02:56;;;;;;;;;;;;;;;;;;5055122;28;19917;-78
2022/05/06 01:05:25;;;;;;;;;;;;;;;;;;5037152;28;19917;-78
2022/05/06 01:07:52;;;;;;;;;;;;;;;;;;5054762;28;19917;-78
2022/05/06 01:10:20;;;;;;;;;;;;;;;;;;5038523;28;19928;-79
2022/05/06 01:12:49;;;;;;;;;;;;;;;;;;5053933;28;19921;-79
2022/05/06 01:15:22;;;;;;;;;;;;;;;;;;5037896;28;19964;-79
2022/05/06 01:17:47;;;;;;;;;;;;;;;;;;5055426;28;20333;-81
2022/05/06 01:20:16;;;;;;;;;;;;;;;;;;5037580;28;19960;-79
2022/05/06 01:22:45;;;;;;;;;;;;;;;;;;5037506;28;19928;-83
2022/05/06 01:25:11;;;;;;;;;;;;;;;;;;5055519;28;19916;-80
2022/05/06 01:27:39;;;;;;;;;;;;;;;;;;5054580;28;19917;-79
2022/05/06 01:30:04;;;;;;;;;;;;;;;;;;5037667;28;19916;-80
2022/05/06 01:32:30;;;;;;;;;;;;;;;;;;5054618;28;19920;-80
2022/05/06 01:35:00;;;;;;;;;;;;;;;;;;5037227;28;19916;-80
2022/05/06 01:37:25;;;;;;;;;;;;;;;;;;5021239;28;19966;-80
2022/05/06 01:39:52;;;;;;;;;;;;;;;;;;5052859;28;19928;-80
2022/05/06 01:42:18;;;;;;;;;;;;;;;;;;5034043;28;19917;-80
2022/05/06 01:44:46;;;;;;;;;;;;;;;;;;5053522;28;20043;-80
2022/05/06 01:47:14;;;;;;;;;;;;;;;;;;5036883;28;19924;-82
2022/05/06 01:49:39;;;;;;;;;;;;;;;;;;5037091;28;19944;-80
2022/05/06 01:52:07;;;;;;;;;;;;;;;;;;5054799;28;20375;-80
2022/05/06 01:54:35;;;;;;;;;;;;;;;;;;5037270;28;19997;-80
2022/05/06 01:57:00;;;;;;;;;;;;;;;;;;5031932;28;19928;-80
2022/05/06 01:59:30;;;;;;;;;;;;;;;;;;5054449;28;19917;-80
2022/05/06 02:01:58;;;;;;;;;;;;;;;;;;5052771;28;20277;-80
2022/05/06 02:07:07;;;;;;;;;;;;;;;;;;5048177;28;20040;-80
2022/05/06 02:09:34;;;;;;;;;;;;;;;;;;5053202;28;20004;-80
2022/05/06 02:12:02;;;;;;;;;;;;;;;;;;5053708;28;20322;-79
2022/05/06 02:14:27;;;;;;;;;;;;;;;;;;5055097;28;19916;-78
2022/05/06 02:16:53;;;;;;;;;;;;;;;;;;5036629;28;19924;-80
2022/05/06 02:19:18;;;;;;;;;;;;;;;;;;5052972;28;19925;-80
2022/05/06 02:21:43;;;;;;;;;;;;;;;;;;5049521;28;19928;-80
2022/05/06 02:24:09;;;;;;;;;;;;;;;;;;5054334;28;19916;-80
2022/05/06 02:26:36;;;;;;;;;;;;;;;;;;5053904;28;19920;-80
2022/05/06 02:29:02;;;;;;;;;;;;;;;;;;5053180;28;19921;-80
2022/05/06 02:34:16;;;;;;;;;;;;;;;;;;5053376;28;19974;-80
2022/05/06 02:36:44;;;;;;;;;;;;;;;;;;5049456;28;20278;-82
2022/05/06 02:39:09;;;;;;;;;;;;;;;;;;5036351;28;19913;-82
2022/05/06 02:41:35;;;;;;;;;;;;;;;;;;5054169;28;19999;-80
2022/05/06 02:44:02;;;;;;;;;;;;;;;;;;5053784;28;19920;-81
2022/05/06 02:46:27;;;;;;;;;;;;;;;;;;5053051;28;19921;-81
2022/05/06 02:48:55;;;;;;;;;;;;;;;;;;5054603;28;19913;-78
2022/05/06 02:51:22;;;;;;;;;;;;;;;;;;5053475;28;19921;-80
2022/05/06 02:53:50;;;;;;;;;;;;;;;;;;5058709;28;19916;-79
2022/05/06 02:56:15;;;;;;;;;;;;;;;;;;5057963;28;19991;-78
2022/05/06 02:58:41;;;;;;;;;;;;;;;;;;5057568;28;19948;-80
2022/05/06 03:01:06;;;;;;;;;;;;;;;;;;5056977;28;19975;-80
2022/05/06 03:03:33;;;;;;;;;;;;;;;;;;5057129;28;19928;-80
2022/05/06 03:05:59;;;;;;;;;;;;;;;;;;5057236;28;19917;-79
2022/05/06 03:08:24;;;;;;;;;;;;;;;;;;5056955;28;19923;-79
2022/05/06 03:10:49;;;;;;;;;;;;;;;;;;5056659;28;19982;-80
2022/05/06 03:13:14;;;;;;;;;;;;;;;;;;5056446;28;19921;-79
2022/05/06 03:15:42;;;;;;;;;;;;;;;;;;5057641;28;19963;-80
2022/05/06 03:18:07;;;;;;;;;;;;;;;;;;5056571;28;19917;-80
2022/05/06 03:20:34;;;;;;;;;;;;;;;;;;5056775;28;19917;-80
2022/05/06 03:23:03;;;;;;;;;;;;;;;;;;5056461;28;19952;-80
2022/05/06 03:25:28;;;;;;;;;;;;;;;;;;5057381;28;20412;-80
2022/05/06 03:28:03;;;;;;;;;;;;;;;;;;5057514;28;19920;-80
2022/05/06 03:30:31;;;;;;;;;;;;;;;;;;5056343;28;20306;-80
2022/05/06 03:32:58;;;;;;;;;;;;;;;;;;5054925;28;20444;-80
2022/05/06 03:35:27;;;;;;;;;;;;;;;;;;5057085;28;19979;-78
2022/05/06 03:37:53;;;;;;;;;;;;;;;;;;5050955;28;19935;-80
2022/05/06 03:40:18;;;;;;;;;;;;;;;;;;5056203;28;19917;-80
2022/05/06 03:42:43;;;;;;;;;;;;;;;;;;5057421;28;19912;-79
2022/05/06 03:45:09;;;;;;;;;;;;;;;;;;5056807;28;19935;-82
2022/05/06 03:47:38;;;;;;;;;;;;;;;;;;5057028;28;19917;-81
2022/05/06 03:52:48;;;;;;;;;;;;;;;;;;5041924;28;19931;-79
2022/05/06 03:55:13;;;;;;;;;;;;;;;;;;5056550;28;19916;-80
2022/05/06 03:57:42;;;;;;;;;;;;;;;;;;5039466;28;19924;-80
2022/05/06 04:00:10;;;;;;;;;;;;;;;;;;5051792;28;20008;-80
2022/05/06 04:02:38;;;;;;;;;;;;;;;;;;5055828;28;19916;-80
2022/05/06 04:05:03;;;;;;;;;;;;;;;;;;5055271;28;19952;-80
2022/05/06 04:07:33;;;;;;;;;;;;;;;;;;5039108;28;20369;-80
2022/05/06 04:09:59;;;;;;;;;;;;;;;;;;5055492;28;19917;-80
2022/05/06 04:12:24;;;;;;;;;;;;;;;;;;5056826;28;20305;-79
2022/05/06 04:14:50;;;;;;;;;;;;;;;;;;5040105;28;19932;-81
2022/05/06 04:17:16;;;;;;;;;;;;;;;;;;5058571;28;20289;-80
2022/05/06 04:23:28;;;;;;;;;;;;;;;;;;5054645;28;19917;-80
2022/05/06 04:25:16;;;;;;;;;;;;;;;;;;5041484;28;20384;-80
2022/05/06 04:27:42;;;;;;;;;;;;;;;;;;5056610;28;19916;-80
2022/05/06 04:30:09;;;;;;;;;;;;;;;;;;5055333;28;19970;-80
2022/05/06 04:32:35;;;;;;;;;;;;;;;;;;5055954;28;19995;-80
2022/05/06 04:35:04;;;;;;;;;;;;;;;;;;5056218;28;19963;-81
2022/05/06 04:37:31;;;;;;;;;;;;;;;;;;5056398;28;19940;-81
2022/05/06 04:39:57;;;;;;;;;;;;;;;;;;5056370;28;19913;-79
2022/05/06 04:42:25;;;;;;;;;;;;;;;;;;5055969;28;19923;-79
2022/05/06 04:44:51;;;;;;;;;;;;;;;;;;5056349;28;20338;-81
2022/05/06 04:47:16;;;;;;;;;;;;;;;;;;5038823;28;19995;-79
2022/05/06 04:49:43;;;;;;;;;;;;;;;;;;5056117;28;19917;-80
2022/05/06 04:52:08;;;;;;;;;;;;;;;;;;5055394;28;19921;-81
2022/05/06 04:54:34;;;;;;;;;;;;;;;;;;5056148;28;19924;-81
2022/05/06 04:57:01;;;;;;;;;;;;;;;;;;5055988;28;20333;-80
2022/05/06 04:59:26;;;;;;;;;;;;;;;;;;5056100;28;19983;-81
2022/05/06 05:01:54;;;;;;;;;;;;;;;;;;5037701;28;19924;-81
2022/05/06 05:04:19;;;;;;;;;;;;;;;;;;5038145;28;20376;-81
2022/05/06 05:06:45;;;;;;;;;;;;;;;;;;5055761;28;19912;-81
2022/05/06 05:09:10;;;;;;;;;;;;;;;;;;5055928;28;20280;-81
2022/05/06 05:11:36;;;;;;;;;;;;;;;;;;5055922;28;19916;-81
2022/05/06 05:14:06;;;;;;;;;;;;;;;;;;5055277;28;19967;-81
2022/05/06 05:16:32;;;;;;;;;;;;;;;;;;5038566;28;20284;-80
2022/05/06 05:18:57;;;;;;;;;;;;;;;;;;5055624;28;19913;-81
2022/05/06 05:21:24;;;;;;;;;;;;;;;;;;5036715;28;20011;-81
2022/05/06 05:23:50;;;;;;;;;;;;;;;;;;5055070;28;19975;-81
2022/05/06 05:26:15;;;;;;;;;;;;;;;;;;5055621;28;19948;-80
2022/05/06 05:28:42;;;;;;;;;;;;;;;;;;5055463;28;19932;-81
2022/05/06 05:31:08;;;;;;;;;;;;;;;;;;5054853;28;19912;-80
2022/05/06 05:33:33;;;;;;;;;;;;;;;;;;5021314;28;19924;-80
2022/05/06 05:36:00;;;;;;;;;;;;;;;;;;5054768;28;19982;-81
2022/05/06 05:38:25;;;;;;;;;;;;;;;;;;5055101;28;19928;-81
2022/05/06 05:40:51;;;;;;;;;;;;;;;;;;5055324;28;19913;-81
2022/05/06 05:48:43;;;;;;;;;;;;;;;;;;5055223;28;19973;-81
2022/05/06 05:51:09;;;;;;;;;;;;;;;;;;5035655;28;19916;-81
2022/05/06 05:53:34;;;;;;;;;;;;;;;;;;5054313;28;19917;-81
2022/05/06 05:56:01;;;;;;;;;;;;;;;;;;5055014;28;19948;-80
2022/05/06 05:58:27;;;;;;;;;;;;;;;;;;5055040;28;19924;-80
2022/05/06 06:00:52;;;;;;;;;;;;;;;;;;5054069;28;20261;-80
2022/05/06 06:03:18;;;;;;;;;;;;;;;;;;5054067;28;20007;-80
2022/05/06 06:05:44;;;;;;;;;;;;;;;;;;5052291;28;19990;-81
2022/05/06 06:08:09;;;;;;;;;;;;;;;;;;5054618;28;19917;-80
2022/05/06 06:10:39;;;;;;;;;;;;;;;;;;5036009;28;19927;-81
2022/05/06 06:13:04;;;;;;;;;;;;;;;;;;5036431;28;20059;-81
2022/05/06 06:15:33;;;;;;;;;;;;;;;;;;5036916;28;20011;-81
2022/05/06 06:17:58;;;;;;;;;;;;;;;;;;5036781;28;19923;-80
2022/05/06 06:20:23;;;;;;;;;;;;;;;;;;5052995;28;19917;-80
2022/05/06 06:22:51;;;;;;;;;;;;;;;;;;5054529;28;20469;-81
2022/05/06 06:25:17;;;;;;;;;;;;;;;;;;5053731;28;19978;-81
2022/05/06 06:27:43;;;;;;;;;;;;;;;;;;5035870;28;20461;-81
2022/05/06 06:30:09;;;;;;;;;;;;;;;;;;5053665;28;19947;-81
2022/05/06 06:32:35;;;;;;;;;;;;;;;;;;5053996;28;19921;-80
2022/05/06 06:35:00;;;;;;;;;;;;;;;;;;5036971;28;19913;-80
2022/05/06 06:37:27;;;;;;;;;;;;;;;;;;5053058;28;19920;-81
2022/05/06 06:39:52;;;;;;;;;;;;;;;;;;5036056;28;20377;-81
2022/05/06 06:42:20;;;;;;;;;;;;;;;;;;5052715;28;19917;-80
2022/05/06 06:44:48;;;;;;;;;;;;;;;;;;5052595;28;19940;-80
2022/05/06 06:47:14;;;;;;;;;;;;;;;;;;5053807;28;19942;-81
2022/05/06 06:49:39;;;;;;;;;;;;;;;;;;5053284;28;20007;-81
2022/05/06 06:52:04;;;;;;;;;;;;;;;;;;5054158;28;19967;-81
2022/05/06 06:54:38;;;;;;;;;;;;;;;;;;5051900;28;19923;-81
2022/05/06 06:57:03;;;;;;;;;;;;;;;;;;5054180;28;19912;-80
2022/05/06 06:59:46;;;;;;;;;;;;;;;;;;5053974;28;20223;-80
2022/05/06 07:02:14;;;;;;;;;;;;;;;;;;5035520;28;20025;-80
2022/05/06 07:04:39;;;;;;;;;;;;;;;;;;5050410;28;19924;-80
2022/05/06 07:12:32;;;;;;;;;;;;;;;;;;5049384;28;19932;-82
2022/05/06 07:14:57;;;;;;;;;;;;;;;;;;5053409;28;19916;-82
2022/05/06 07:17:23;;;;;;;;;;;;;;;;;;5052215;28;19917;-82
2022/05/06 07:19:48;;;;;;;;;;;;;;;;;;5053520;28;19913;-82
2022/05/06 07:22:13;;;;;;;;;;;;;;;;;;5053720;28;19960;-83
2022/05/06 07:24:38;;;;;;;;;;;;;;;;;;5036176;28;20011;-82
2022/05/06 07:27:04;;;;;;;;;;;;;;;;;;5051293;28;19932;-81
2022/05/06 07:29:31;;;;;;;;;;;;;;;;;;5052485;28;19927;-85
2022/05/06 07:31:56;;;;;;;;;;;;;;;;;;5052882;28;19921;-84
2022/05/06 07:34:21;;;;;;;;;;;;;;;;;;5050111;28;20027;-81
2022/05/06 07:36:46;;;;;;;;;;;;;;;;;;5052884;28;19917;-81
2022/05/06 07:39:12;;;;;;;;;;;;;;;;;;5055902;28;19974;-84
2022/05/06 07:41:38;;;;;;;;;;;;;;;;;;5057013;28;19952;-82
2022/05/06 07:44:03;;;;;;;;;;;;;;;;;;5039686;28;19913;-83
2022/05/06 07:46:28;;;;;;;;;;;;;;;;;;5057046;28;19912;-83
2022/05/06 07:48:53;;;;;;;;;;;;;;;;;;5056776;28;19970;-82
2022/05/06 07:51:21;;;;;;;;;;;;;;;;;;5055886;28;20235;-83
2022/05/06 07:53:48;;;;;;;;;;;;;;;;;;5040534;28;19916;-83
2022/05/06 07:56:15;;;;;;;;;;;;;;;;;;5038128;28;19921;-83
2022/05/06 07:58:40;;;;;;;;;;;;;;;;;;5034512;28;19920;-81
2022/05/06 08:01:06;;;;;;;;;;;;;;;;;;5055620;28;19928;-81
2022/05/06 08:06:15;;;;;;;;;;;;;;;;;;5059432;28;19978;-81
2022/05/06 08:08:40;;;;;;;;;;;;;;;;;;5054594;28;19916;-84
2022/05/06 08:11:06;;;;;;;;;;;;;;;;;;5055657;28;20011;-84
2022/05/06 08:13:31;;;;;;;;;;;;;;;;;;5056839;28;20338;-81
2022/05/06 08:15:57;;;;;;;;;;;;;;;;;;5039182;28;19913;-81
2022/05/06 08:18:23;;;;;;;;;;;;;;;;;;5039396;28;20011;-83
2022/05/06 08:20:51;;;;;;;;;;;;;;;;;;5038544;28;20239;-82
2022/05/06 08:23:29;;;;;;;;;;;;;;;;;;5057087;28;19920;-82
2022/05/06 08:25:54;;;;;;;;;;;;;;;;;;5053365;28;19913;-81
2022/05/06 08:28:34;;;;;;;;;;;;;;;;;;5054985;28;20377;-84
2022/05/06 08:37:05;;;;;;;;;;;;;;;;;;5055171;28;20009;-80
2022/05/06 08:39:33;;;;;;;;;;;;;;;;;;5055962;28;19959;-82
2022/05/06 08:41:59;;;;;;;;;;;;;;;;;;5052621;28;19925;-81
2022/05/06 08:52:43;;;;;;;;;;;;;;;;;;5038708;28;20343;-81
2022/05/06 08:55:08;;;;;;;;;;;;;;;;;;5021244;28;19991;-80
2022/05/06 08:57:35;;;;;;;;;;;;;;;;;;5036633;28;20004;-81
2022/05/06 09:00:03;;;;;;;;;;;;;;;;;;5021880;28;20059;-80
2022/05/06 09:02:29;;;;;;;;;;;;;;;;;;5038365;28;20012;-83
2022/05/06 09:05:16;;;;;;;;;;;;;;;;;;5058889;28;19975;-80
2022/05/06 09:07:54;;;;;;;;;;;;;;;;;;5056192;28;19917;-80
2022/05/06 09:10:22;;;;;;;;;;;;;;;;;;5060924;28;20003;-83
2022/05/06 09:12:47;;;;;;;;;;;;;;;;;;5040301;28;20211;-80
2022/05/06 09:18:16;;;;;;;;;;;;;;;;;;5041118;28;19924;-81
2022/05/06 09:20:42;;;;;;;;;;;;;;;;;;5057122;28;19913;-81
2022/05/06 09:23:24;;;;;;;;;;;;;;;;;;5058339;28;19920;-81
2022/05/06 09:25:50;;;;;;;;;;;;;;;;;;5049178;28;19916;-82
2022/05/06 09:28:24;;;;;;;;;;;;;;;;;;5061858;28;19928;-82
2022/05/06 09:31:06;;;;;;;;;;;;;;;;;;5062074;28;19984;-83
2022/05/06 09:34:11;;;;;;;;;;;;;;;;;;5040653;28;21415;-83
2022/05/06 09:36:36;;;;;;;;;;;;;;;;;;5041237;28;19928;-80
2022/05/06 09:39:05;;;;;;;;;;;;;;;;;;5023055;28;19917;-82
2022/05/06 09:41:31;;;;;;;;;;;;;;;;;;4999975;28;19923;-80
2022/05/06 09:44:03;;;;;;;;;;;;;;;;;;5018231;28;19929;-81
2022/05/06 09:46:28;;;;;;;;;;;;;;;;;;5024923;28;19921;-82
2022/05/06 09:48:56;;;;;;;;;;;;;;;;;;5041196;28;19913;-82
2022/05/06 09:51:28;;;;;;;;;;;;;;;;;;5023065;28;19913;-81
2022/05/06 09:53:54;;;;;;;;;;;;;;;;;;5039757;28;19943;-81
2022/05/06 09:56:19;;;;;;;;;;;;;;;;;;5005605;28;20365;-82
2022/05/06 09:59:03;;;;;;;;;;;;;;;;;;5005375;28;19995;-81
2022/05/06 10:01:28;;;;;;;;;;;;;;;;;;5032974;28;19933;-80
2022/05/06 10:03:54;;;;;;;;;;;;;;;;;;5011855;28;19913;-81
2022/05/06 10:06:27;;;;;;;;;;;;;;;;;;5040301;28;19923;-82
2022/05/06 10:08:54;;;;;;;;;;;;;;;;;;5059351;28;19916;-82
2022/05/06 10:11:23;;;;;;;;;;;;;;;;;;5021862;28;20302;-82
2022/05/06 10:13:48;;;;;;;;;;;;;;;;;;5057929;28;19913;-80
2022/05/06 10:16:13;;;;;;;;;;;;;;;;;;5045640;28;19916;-82
2022/05/06 10:18:40;;;;;;;;;;;;;;;;;;5060053;28;19970;-83
2022/05/06 10:21:16;;;;;;;;;;;;;;;;;;5061402;28;19913;-82
2022/05/06 10:23:52;;;;;;;;;;;;;;;;;;5062395;28;20038;-82
2022/05/06 10:26:36;;;;;;;;;;;;;;;;;;5061164;28;19920;-81
2022/05/06 10:34:30;;;;;;;;;;;;;;;;;;5042092;28;20320;-82
2022/05/06 10:36:56;;;;;;;;;;;;;;;;;;5060355;28;19951;-80
2022/05/06 10:39:22;;;;;;;;;;;;;;;;;;5066029;28;19917;-81
2022/05/06 10:42:05;;;;;;;;;;;;;;;;;;5067169;28;20043;-81
2022/05/06 10:44:37;;;;;;;;;;;;;;;;;;5066117;28;19923;-80
2022/05/06 10:47:03;;;;;;;;;;;;;;;;;;5069804;28;19912;-81
2022/05/06 10:49:46;;;;;;;;;;;;;;;;;;5048607;28;19920;-81
2022/05/06 10:52:20;;;;;;;;;;;;;;;;;;5067755;28;19916;-81
2022/05/06 10:54:49;;;;;;;;;;;;;;;;;;5053538;28;20323;-81
2022/05/06 10:57:14;;;;;;;;;;;;;;;;;;5060871;28;19913;-82
2022/05/06 11:00:01;;;;;;;;;;;;;;;;;;5058447;28;19916;-81
2022/05/06 11:02:27;;;;;;;;;;;;;;;;;;5058591;28;19917;-83
2022/05/06 11:04:53;;;;;;;;;;;;;;;;;;5052025;28;19925;-82
2022/05/06 11:07:22;;;;;;;;;;;;;;;;;;5032144;28;19920;-81
2022/05/06 11:09:53;;;;;;;;;;;;;;;;;;5054613;28;19927;-85
2022/05/06 11:12:42;;;;;;;;;;;;;;;;;;5037627;28;20277;-82
2022/05/06 11:15:10;;;;;;;;;;;;;;;;;;5063609;28;20441;-85
2022/05/06 11:17:38;;;;;;;;;;;;;;;;;;5041060;28;20355;-82
2022/05/06 11:20:05;;;;;;;;;;;;;;;;;;5045242;28;19967;-83
2022/05/06 11:22:39;;;;;;;;;;;;;;;;;;5038376;28;20401;-83
2022/05/06 11:25:10;;;;;;;;;;;;;;;;;;5068898;28;19913;-84
2022/05/06 11:27:35;;;;;;;;;;;;;;;;;;5046565;28;19923;-83
2022/05/06 11:30:01;;;;;;;;;;;;;;;;;;5059939;28;19920;-83
2022/05/06 11:32:26;;;;;;;;;;;;;;;;;;5051637;28;20251;-83
2022/05/06 11:34:55;;;;;;;;;;;;;;;;;;5057929;28;19921;-82
2022/05/06 11:37:21;;;;;;;;;;;;;;;;;;5053391;28;19992;-81
2022/05/06 11:40:18;;;;;;;;;;;;;;;;;;5043476;28;19956;-82
2022/05/06 11:42:42;;;;;;;;;;;;;;;;;;5041830;28;19928;-84
2022/05/06 11:47:54;;;;;;;;;;;;;;;;;;5042845;28;20010;-82
2022/05/06 11:50:20;;;;;;;;;;;;;;;;;;5038356;28;20035;-81
2022/05/06 11:52:45;;;;;;;;;;;;;;;;;;5057522;28;19949;-85
2022/05/06 11:55:13;;;;;;;;;;;;;;;;;;5042156;28;19924;-83
2022/05/06 11:57:38;;;;;;;;;;;;;;;;;;5039852;28;19913;-84
2022/05/06 12:00:04;;;;;;;;;;;;;;;;;;5053885;28;20353;-82
2022/05/06 12:02:29;;;;;;;;;;;;;;;;;;5035032;28;19978;-83
2022/05/06 12:04:54;;;;;;;;;;;;;;;;;;5054263;28;19912;-83
2022/05/06 12:07:20;;;;;;;;;;;;;;;;;;5053221;28;20621;-83
2022/05/06 12:09:45;;;;;;;;;;;;;;;;;;5040414;28;19912;-82
2022/05/06 12:12:10;;;;;;;;;;;;;;;;;;5054894;28;19917;-84
2022/05/06 12:14:44;;;;;;;;;;;;;;;;;;5053128;28;19928;-84
2022/05/06 12:17:13;;;;;;;;;;;;;;;;;;5056077;28;20384;-83
2022/05/06 12:19:39;;;;;;;;;;;;;;;;;;5050455;28;19914;-84
2022/05/06 12:22:11;;;;;;;;;;;;;;;;;;5057227;28;19923;-77
2022/05/06 12:24:42;;;;;;;;;;;;;;;;;;5053908;28;19921;-78
2022/05/06 12:27:10;;;;;;;;;;;;;;;;;;5052241;28;20301;-79
2022/05/06 12:29:38;;;;;;;;;;;;;;;;;;5038408;28;19921;-79
2022/05/06 12:32:04;;;;;;;;;;;;;;;;;;5039107;28;19929;-79
2022/05/06 12:34:32;;;;;;;;;;;;;;;;;;5054783;28;19921;-79
2022/05/06 12:37:13;;;;;;;;;;;;;;;;;;5051689;28;19921;-78
2022/05/06 12:39:44;;;;;;;;;;;;;;;;;;5038163;28;19970;-79
2022/05/06 12:42:16;;;;;;;;;;;;;;;;;;5036058;28;20042;-79
2022/05/06 12:44:41;;;;;;;;;;;;;;;;;;5050344;28;19928;-79
2022/05/06 12:50:02;;;;;;;;;;;;;;;;;;5054612;28;19986;-78
2022/05/06 12:52:27;;;;;;;;;;;;;;;;;;5053685;28;19929;-82
2022/05/06 12:54:55;;;;;;;;;;;;;;;;;;5055749;28;20310;-78
2022/05/06 12:57:20;;;;;;;;;;;;;;;;;;5038533;28;20494;-79
2022/05/06 12:59:45;;;;;;;;;;;;;;;;;;5055740;28;19943;-79
2022/05/06 13:02:13;;;;;;;;;;;;;;;;;;5055884;28;20267;-77
2022/05/06 13:04:38;;;;;;;;;;;;;;;;;;5055719;28;19951;-77
2022/05/06 13:07:06;;;;;;;;;;;;;;;;;;5033957;28;19953;-78
2022/05/06 13:09:31;;;;;;;;;;;;;;;;;;5052134;28;19917;-78
2022/05/06 13:11:56;;;;;;;;;;;;;;;;;;5035132;28;20294;-79
2022/05/06 13:14:23;;;;;;;;;;;;;;;;;;5052991;28;20320;-78
2022/05/06 13:16:48;;;;;;;;;;;;;;;;;;5020904;28;20011;-78
2022/05/06 13:19:13;;;;;;;;;;;;;;;;;;5052988;28;20015;-77
2022/05/06 13:21:39;;;;;;;;;;;;;;;;;;5047805;28;19912;-78
2022/05/06 13:24:04;;;;;;;;;;;;;;;;;;5034679;28;20282;-77
2022/05/06 13:26:30;;;;;;;;;;;;;;;;;;5051425;28;19916;-78
2022/05/06 13:28:55;;;;;;;;;;;;;;;;;;5052731;28;19932;-77
2022/05/06 13:31:21;;;;;;;;;;;;;;;;;;5050808;28;19924;-78
2022/05/06 13:33:51;;;;;;;;;;;;;;;;;;5034110;28;19960;-78
2022/05/06 13:36:19;;;;;;;;;;;;;;;;;;5049866;28;19927;-77
2022/05/06 13:38:44;;;;;;;;;;;;;;;;;;5035695;28;20247;-76
2022/05/06 13:41:09;;;;;;;;;;;;;;;;;;5053981;28;19927;-77
2022/05/06 13:43:35;;;;;;;;;;;;;;;;;;5053461;28;19928;-77
2022/05/06 13:46:00;;;;;;;;;;;;;;;;;;5052461;28;20003;-76
2022/05/06 13:48:25;;;;;;;;;;;;;;;;;;5053124;28;19917;-76
2022/05/06 13:50:50;;;;;;;;;;;;;;;;;;5052338;28;20350;-76
2022/05/06 13:53:20;;;;;;;;;;;;;;;;;;5054827;28;19921;-76
2022/05/06 14:01:15;;;;;;;;;;;;;;;;;;5050326;28;19944;-76
2022/05/06 14:03:40;;;;;;;;;;;;;;;;;;5051633;28;19927;-76
2022/05/06 14:06:06;;;;;;;;;;;;;;;;;;5049803;28;19917;-75
2022/05/06 14:08:31;;;;;;;;;;;;;;;;;;5050163;28;19923;-75
2022/05/06 14:10:59;;;;;;;;;;;;;;;;;;5016724;28;20287;-75
2022/05/06 14:13:24;;;;;;;;;;;;;;;;;;5033126;28;19983;-74
2022/05/06 14:15:51;;;;;;;;;;;;;;;;;;5052285;28;20452;-76
2022/05/06 14:18:16;;;;;;;;;;;;;;;;;;5053850;28;19917;-76
2022/05/06 14:20:41;;;;;;;;;;;;;;;;;;5034920;28;19917;-75
2022/05/06 14:23:06;;;;;;;;;;;;;;;;;;5052180;28;19967;-75
2022/05/06 14:25:31;;;;;;;;;;;;;;;;;;5051220;28;19924;-74
2022/05/06 14:27:59;;;;;;;;;;;;;;;;;;5036266;28;19924;-76
2022/05/06 14:30:24;;;;;;;;;;;;;;;;;;5049814;28;20338;-75
2022/05/06 14:32:52;;;;;;;;;;;;;;;;;;5048738;28;19928;-76
2022/05/06 14:35:19;;;;;;;;;;;;;;;;;;5034101;28;19913;-76
2022/05/06 14:37:47;;;;;;;;;;;;;;;;;;5036737;28;19960;-76
2022/05/06 14:40:12;;;;;;;;;;;;;;;;;;5034656;28;19929;-76
2022/05/06 14:42:40;;;;;;;;;;;;;;;;;;5052930;28;19999;-76
2022/05/06 14:45:08;;;;;;;;;;;;;;;;;;5049359;28;19967;-75
2022/05/06 14:47:33;;;;;;;;;;;;;;;;;;5036216;28;19924;-76
2022/05/06 14:50:03;;;;;;;;;;;;;;;;;;5053921;28;19920;-76
2022/05/06 14:52:28;;;;;;;;;;;;;;;;;;5032630;28;19932;-76
2022/05/06 14:54:54;;;;;;;;;;;;;;;;;;5052337;28;19917;-76
2022/05/06 14:57:19;;;;;;;;;;;;;;;;;;5053961;28;19917;-77
2022/05/06 14:59:44;;;;;;;;;;;;;;;;;;5049963;28;19925;-76
2022/05/06 15:02:09;;;;;;;;;;;;;;;;;;5048890;28;20204;-76
2022/05/06 15:04:40;;;;;;;;;;;;;;;;;;5050446;28;20260;-77
2022/05/06 15:07:05;;;;;;;;;;;;;;;;;;5050105;28;19947;-77
2022/05/06 15:09:30;;;;;;;;;;;;;;;;;;5046086;28;19917;-77
2022/05/06 15:11:58;;;;;;;;;;;;;;;;;;5050667;28;19921;-76
2022/05/06 15:14:25;;;;;;;;;;;;;;;;;;5054128;28;19975;-77
2022/05/06 15:16:51;;;;;;;;;;;;;;;;;;5053809;28;19924;-76
2022/05/06 15:19:28;;;;;;;;;;;;;;;;;;5053577;28;19917;-76
2022/05/06 15:21:54;;;;;;;;;;;;;;;;;;5050910;28;19913;-76
2022/05/06 15:24:24;;;;;;;;;;;;;;;;;;5055309;28;19928;-76
2022/05/06 15:26:49;;;;;;;;;;;;;;;;;;5037464;28;19928;-77
2022/05/06 15:29:15;;;;;;;;;;;;;;;;;;5018517;28;19916;-76
2022/05/06 15:31:42;;;;;;;;;;;;;;;;;;5050138;28;20453;-76
2022/05/06 15:34:09;;;;;;;;;;;;;;;;;;5052864;28;19913;-77
2022/05/06 15:36:35;;;;;;;;;;;;;;;;;;5033991;28;19939;-76
2022/05/06 15:39:00;;;;;;;;;;;;;;;;;;5053861;28;20334;-76
2022/05/06 15:41:30;;;;;;;;;;;;;;;;;;5035338;28;20348;-76
2022/05/06 15:44:01;;;;;;;;;;;;;;;;;;5035336;28;20264;-77
2022/05/06 15:46:26;;;;;;;;;;;;;;;;;;5051655;28;19917;-76
2022/05/06 15:48:51;;;;;;;;;;;;;;;;;;5046833;28;19955;-76
2022/05/06 15:51:23;;;;;;;;;;;;;;;;;;5033252;28;19927;-76
2022/05/06 15:53:48;;;;;;;;;;;;;;;;;;5047735;28;19920;-77
2022/05/06 15:56:13;;;;;;;;;;;;;;;;;;5049597;28;19927;-76
2022/05/06 15:58:41;;;;;;;;;;;;;;;;;;5050996;28;19916;-76
2022/05/06 16:01:06;;;;;;;;;;;;;;;;;;5052228;28;19935;-76
2022/05/06 16:03:32;;;;;;;;;;;;;;;;;;5055529;28;19916;-76
2022/05/06 16:05:59;;;;;;;;;;;;;;;;;;5056613;28;19929;-76
2022/05/06 16:08:24;;;;;;;;;;;;;;;;;;5054819;28;19947;-77
2022/05/06 16:10:50;;;;;;;;;;;;;;;;;;5053747;28;19917;-76
2022/05/06 16:13:17;;;;;;;;;;;;;;;;;;5054040;28;19920;-77
2022/05/06 16:15:45;;;;;;;;;;;;;;;;;;5056810;28;19916;-76
2022/05/06 16:18:11;;;;;;;;;;;;;;;;;;5053440;28;19927;-77
2022/05/06 16:20:36;;;;;;;;;;;;;;;;;;5038051;28;19917;-75
2022/05/06 16:23:04;;;;;;;;;;;;;;;;;;5054922;28;19927;-76
2022/05/06 16:25:30;;;;;;;;;;;;;;;;;;5038269;28;19916;-75
2022/05/06 16:27:58;;;;;;;;;;;;;;;;;;5056285;28;19917;-76
2022/05/06 16:30:24;;;;;;;;;;;;;;;;;;5054465;28;19921;-76
2022/05/06 16:32:49;;;;;;;;;;;;;;;;;;5055660;28;19932;-76
2022/05/06 16:37:59;;;;;;;;;;;;;;;;;;5055289;28;20004;-76
2022/05/06 16:40:27;;;;;;;;;;;;;;;;;;5037663;28;19956;-76
2022/05/06 16:42:53;;;;;;;;;;;;;;;;;;5037983;28;19963;-76
2022/05/06 16:45:23;;;;;;;;;;;;;;;;;;5038575;28;19964;-75
2022/05/06 16:47:48;;;;;;;;;;;;;;;;;;5054067;28;20004;-76
2022/05/06 16:50:13;;;;;;;;;;;;;;;;;;5054752;28;20401;-76
2022/05/06 16:52:39;;;;;;;;;;;;;;;;;;5019422;28;19948;-76
2022/05/06 16:55:05;;;;;;;;;;;;;;;;;;5054383;28;20019;-76
2022/05/06 16:57:33;;;;;;;;;;;;;;;;;;5053969;28;19932;-76
2022/05/06 16:59:58;;;;;;;;;;;;;;;;;;5052286;28;20007;-76
2022/05/06 17:02:24;;;;;;;;;;;;;;;;;;5055475;28;20046;-77
2022/05/06 17:04:49;;;;;;;;;;;;;;;;;;5054185;28;20015;-75
2022/05/06 17:07:16;;;;;;;;;;;;;;;;;;5034758;28;20250;-76
2022/05/06 17:09:44;;;;;;;;;;;;;;;;;;5053036;28;19913;-76
2022/05/06 17:12:12;;;;;;;;;;;;;;;;;;5055027;28;20078;-75
2022/05/06 17:14:37;;;;;;;;;;;;;;;;;;5055466;28;20296;-75
2022/05/06 17:17:03;;;;;;;;;;;;;;;;;;5054880;28;19924;-75
2022/05/06 17:19:31;;;;;;;;;;;;;;;;;;5038421;28;19995;-76
2022/05/06 17:21:58;;;;;;;;;;;;;;;;;;5054803;28;19921;-75
2022/05/06 17:24:26;;;;;;;;;;;;;;;;;;5055608;28;19914;-76
2022/05/06 17:26:51;;;;;;;;;;;;;;;;;;5055156;28;20380;-77
2022/05/06 17:29:17;;;;;;;;;;;;;;;;;;5055214;28;19916;-76
2022/05/06 17:31:44;;;;;;;;;;;;;;;;;;5055068;28;19927;-76
2022/05/06 17:34:11;;;;;;;;;;;;;;;;;;5055411;28;19917;-76
2022/05/06 17:36:36;;;;;;;;;;;;;;;;;;5055015;28;19939;-75
2022/05/06 17:39:03;;;;;;;;;;;;;;;;;;5055037;28;20857;-76
2022/05/06 17:41:31;;;;;;;;;;;;;;;;;;5054984;28;19913;-76
2022/05/06 17:43:56;;;;;;;;;;;;;;;;;;5053131;28;19921;-76
2022/05/06 17:46:26;;;;;;;;;;;;;;;;;;5055031;28;19958;-75
2022/05/06 17:48:53;;;;;;;;;;;;;;;;;;5054858;28;19935;-76